createdAt,value
2018-10-11T00:01:07.655Z,100620.84
2018-10-11T00:03:36.782Z,100621.49
2018-10-11T00:06:05.947Z,100607.78
2018-10-11T00:08:34.969Z,100612.58
2018-10-11T00:11:04.089Z,100609.36
2018-10-11T00:13:33.592Z,100614.24
2018-10-11T00:16:03.109Z,100613.19
2018-10-11T00:18:32.420Z,100612.67
2018-10-11T00:21:01.552Z,100613.31
2018-10-11T00:23:30.492Z,100612.55
2018-10-11T00:25:59.577Z,100605.57
2018-10-11T00:28:28.920Z,100593.78
2018-10-11T00:30:58.028Z,100595.34
2018-10-11T00:33:27.950Z,100592.25
2018-10-11T00:35:57.099Z,100598.96
2018-10-11T00:38:26.133Z,100605.66
2018-10-11T00:40:55.721Z,100598.04
2018-10-11T00:43:25.116Z,100596.89
2018-10-11T00:45:54.700Z,100605.53
2018-10-11T00:48:24.530Z,100595.53
2018-10-11T00:50:53.729Z,100590.05
2018-10-11T00:53:23.846Z,100590.56
2018-10-11T00:55:53.304Z,100590.66
2018-10-11T00:58:22.453Z,100588.71
2018-10-11T01:00:51.854Z,100587.38
2018-10-11T01:03:21.036Z,100584.09
2018-10-11T01:05:50.076Z,100588.61
2018-10-11T01:08:18.957Z,100584.28
2018-10-11T01:10:47.839Z,100583.07
2018-10-11T01:13:17.957Z,100581.12
2018-10-11T01:15:46.946Z,100578.25
2018-10-11T01:18:16.192Z,100579.28
2018-10-11T01:20:45.223Z,100581.25
2018-10-11T01:23:14.265Z,100582.14
2018-10-11T01:25:43.643Z,100576.19
2018-10-11T01:28:12.703Z,100579.05
2018-10-11T01:30:47.219Z,100573.28
2018-10-11T01:33:18.714Z,100571.78
2018-10-11T01:35:47.917Z,100572.93
2018-10-11T01:38:16.993Z,100573.98
2018-10-11T01:40:45.881Z,100569.57
2018-10-11T01:43:15.368Z,100571.95
2018-10-11T01:45:44.596Z,100574.11
2018-10-11T01:48:13.547Z,100565.58
2018-10-11T01:50:42.916Z,100562.27
2018-10-11T01:53:12.365Z,100567.19
2018-10-11T01:55:41.381Z,100562.13
2018-10-11T01:58:10.367Z,100562.55
2018-10-11T02:00:39.594Z,100559.23
2018-10-11T02:03:09.991Z,100558.91
2018-10-11T02:05:38.918Z,100555.83
2018-10-11T02:08:07.927Z,100552.34
2018-10-11T02:10:36.792Z,100549.06
2018-10-11T02:13:05.627Z,100555.25
2018-10-11T02:15:34.953Z,100549.06
2018-10-11T02:18:04.208Z,100545.59
2018-10-11T02:20:33.506Z,100539.22
2018-10-11T02:23:02.805Z,100535.84
2018-10-11T02:25:31.793Z,100535.01
2018-10-11T02:28:01.071Z,100533.16
2018-10-11T02:30:30.240Z,100526.95
2018-10-11T02:32:59.289Z,100530.14
2018-10-11T02:35:28.656Z,100530.66
2018-10-11T02:37:57.715Z,100529.51
2018-10-11T02:40:26.534Z,100519.83
2018-10-11T02:42:55.615Z,100519.22
2018-10-11T02:45:24.554Z,100518.86
2018-10-11T02:47:53.840Z,100516.41
2018-10-11T02:50:22.838Z,100520.30
2018-10-11T02:52:51.892Z,100521.03
2018-10-11T02:55:24.238Z,100520.67
2018-10-11T02:58:04.119Z,100518.31
2018-10-11T03:00:35.192Z,100521.50
2018-10-11T03:03:08.949Z,100520.62
2018-10-11T03:05:40.742Z,100521.94
2018-10-11T03:08:13.151Z,100515.77
2018-10-11T03:10:42.131Z,100514.61
2018-10-11T03:13:13.071Z,100511.98
2018-10-11T03:15:42.731Z,100515.48
2018-10-11T03:18:12.805Z,100514.66
2018-10-11T03:20:43.020Z,100515.02
2018-10-11T03:23:12.548Z,100509.47
2018-10-11T03:25:42.751Z,100510.03
2018-10-11T03:28:12.953Z,100520.23
2018-10-11T03:30:42.134Z,100515.67
2018-10-11T03:33:12.245Z,100517.30
2018-10-11T03:35:42.313Z,100519.68
2018-10-11T03:38:11.576Z,100528.97
2018-10-11T03:40:40.504Z,100524.36
2018-10-11T03:43:09.838Z,100518.61
2018-10-11T03:45:38.845Z,100517.77
2018-10-11T03:48:08.204Z,100507.70
2018-10-11T03:50:37.529Z,100508.00
2018-10-11T03:53:06.856Z,100506.66
2018-10-11T03:55:36.057Z,100500.40
2018-10-11T03:58:04.978Z,100510.56
2018-10-11T04:00:34.451Z,100505.03
2018-10-11T04:03:03.727Z,100505.66
2018-10-11T04:05:32.869Z,100507.08
2018-10-11T04:08:01.878Z,100517.45
2018-10-11T04:10:31.399Z,100507.48
2018-10-11T04:13:00.863Z,100512.00
2018-10-11T04:15:30.396Z,100517.34
2018-10-11T04:17:59.914Z,100516.52
2018-10-11T04:20:28.976Z,100513.34
2018-10-11T04:22:58.151Z,100510.16
2018-10-11T04:25:27.699Z,100506.56
2018-10-11T04:27:57.308Z,100503.27
2018-10-11T04:30:26.743Z,100505.33
2018-10-11T04:32:56.744Z,100501.65
2018-10-11T04:35:26.562Z,100499.59
2018-10-11T04:37:55.710Z,100498.13
2018-10-11T04:40:25.237Z,100498.23
2018-10-11T04:42:54.763Z,100491.27
2018-10-11T04:45:24.308Z,100501.31
2018-10-11T04:47:54.122Z,100507.99
2018-10-11T04:50:23.118Z,100506.25
2018-10-11T04:52:52.072Z,100507.80
2018-10-11T04:55:21.484Z,100508.93
2018-10-11T04:57:50.954Z,100517.16
2018-10-11T05:00:20.073Z,100512.20
2018-10-11T05:02:49.437Z,100515.09
2018-10-11T05:05:18.425Z,100507.99
2018-10-11T05:07:47.734Z,100514.19
2018-10-11T05:10:16.913Z,100521.36
2018-10-11T05:12:46.424Z,100519.43
2018-10-11T05:15:15.820Z,100522.69
2018-10-11T05:17:45.939Z,100517.47
2018-10-11T05:20:15.410Z,100517.69
2018-10-11T05:22:44.643Z,100520.14
2018-10-11T05:25:13.889Z,100528.45
2018-10-11T05:27:43.033Z,100538.84
2018-10-11T05:30:12.163Z,100542.95
2018-10-11T05:32:41.384Z,100540.27
2018-10-11T05:35:10.926Z,100532.80
2018-10-11T05:37:40.318Z,100533.70
2018-10-11T05:40:09.495Z,100523.92
2018-10-11T05:42:39.008Z,100521.80
2018-10-11T05:45:15.601Z,100525.28
2018-10-11T05:47:45.087Z,100527.23
2018-10-11T05:50:14.524Z,100535.57
2018-10-11T05:52:44.503Z,100535.03
2018-10-11T05:55:14.339Z,100523.95
2018-10-11T05:57:43.989Z,100528.77
2018-10-11T06:00:13.589Z,100526.70
2018-10-11T06:03:16.502Z,100528.77
2018-10-11T06:05:45.913Z,100528.89
2018-10-11T06:08:14.969Z,100537.92
2018-10-11T06:10:45.445Z,100535.03
2018-10-11T06:13:15.292Z,100537.30
2018-10-11T06:15:44.673Z,100535.37
2018-10-11T06:18:14.208Z,100535.14
2018-10-11T06:20:43.396Z,100540.50
2018-10-11T06:23:12.533Z,100543.88
2018-10-11T06:25:41.468Z,100542.34
2018-10-11T06:28:10.947Z,100548.38
2018-10-11T06:30:40.370Z,100552.49
2018-10-11T06:33:09.275Z,100557.31
2018-10-11T06:35:39.234Z,100557.83
2018-10-11T06:38:08.629Z,100559.97
2018-10-11T06:40:38.188Z,100561.08
2018-10-11T06:43:07.634Z,100564.23
2018-10-11T06:45:37.110Z,100564.93
2018-10-11T06:48:08.064Z,100563.84
2018-10-11T06:50:37.244Z,100564.32
2018-10-11T06:53:06.527Z,100561.12
2018-10-11T06:55:42.303Z,100558.89
2018-10-11T06:58:11.523Z,100563.06
2018-10-11T07:00:40.636Z,100564.75
2018-10-11T07:03:10.046Z,100562.48
2018-10-11T07:05:46.924Z,100558.80
2018-10-11T07:08:16.120Z,100566.35
2018-10-11T07:10:45.351Z,100566.17
2018-10-11T07:13:14.407Z,100574.55
2018-10-11T07:15:50.997Z,100576.95
2018-10-11T07:18:20.068Z,100575.22
2018-10-11T07:20:49.186Z,100575.18
2018-10-11T07:23:18.356Z,100578.61
2018-10-11T07:25:53.311Z,100584.73
2018-10-11T07:28:22.818Z,100590.76
2018-10-11T07:30:51.869Z,100589.64
2018-10-11T07:33:21.028Z,100586.08
2018-10-11T07:35:50.117Z,100593.53
2018-10-11T07:38:19.633Z,100588.59
2018-10-11T07:40:48.810Z,100601.28
2018-10-11T07:43:17.861Z,100603.75
2018-10-11T07:45:50.406Z,100608.00
2018-10-11T07:48:20.637Z,100616.11
2018-10-11T07:50:49.873Z,100614.08
2018-10-11T07:53:18.871Z,100613.59
2018-10-11T07:55:48.317Z,100617.59
2018-10-11T07:58:17.335Z,100615.66
2018-10-11T08:00:46.487Z,100615.86
2018-10-11T08:03:15.507Z,100617.85
2018-10-11T08:05:53.698Z,100613.95
2018-10-11T08:08:23.312Z,100606.62
2018-10-11T08:10:52.886Z,100611.67
2018-10-11T08:13:22.148Z,100614.55
2018-10-11T08:15:52.481Z,100610.13
2018-10-11T08:18:21.440Z,100613.21
2018-10-11T08:20:50.491Z,100623.13
2018-10-11T08:23:19.453Z,100626.83
2018-10-11T08:25:48.915Z,100623.55
2018-10-11T08:28:22.476Z,100622.02
2018-10-11T08:30:51.487Z,100628.13
2018-10-11T08:33:20.633Z,100634.48
2018-10-11T08:35:55.296Z,100638.75
2018-10-11T08:38:24.437Z,100641.52
2018-10-11T08:40:53.478Z,100639.25
2018-10-11T08:43:22.956Z,100632.96
2018-10-11T08:46:08.977Z,100633.36
2018-10-11T08:48:38.076Z,100633.44
2018-10-11T08:51:07.040Z,100634.71
2018-10-11T08:53:36.518Z,100638.51
2018-10-11T08:56:13.670Z,100636.30
2018-10-11T08:58:42.877Z,100639.47
2018-10-11T09:01:13.031Z,100633.56
2018-10-11T09:03:42.489Z,100635.45
2018-10-11T09:06:12.558Z,100633.80
2018-10-11T09:08:41.760Z,100630.52
2018-10-11T09:11:10.785Z,100628.45
2018-10-11T09:13:40.616Z,100625.95
2018-10-11T09:16:18.301Z,100628.58
2018-10-11T09:18:47.431Z,100636.87
2018-10-11T09:21:16.528Z,100634.61
2018-10-11T09:23:45.628Z,100636.64
2018-10-11T09:26:15.902Z,100637.03
2018-10-11T09:28:44.948Z,100627.66
2018-10-11T09:31:14.262Z,100623.14
2018-10-11T09:33:43.869Z,100623.74
2018-10-11T09:36:13.112Z,100624.63
2018-10-11T09:38:42.558Z,100627.41
2018-10-11T09:41:11.628Z,100619.65
2018-10-11T09:43:40.766Z,100621.41
2018-10-11T09:46:11.002Z,100635.03
2018-10-11T09:48:40.103Z,100632.39
2018-10-11T09:51:10.456Z,100630.13
2018-10-11T09:53:39.956Z,100640.77
2018-10-11T09:56:09.136Z,100645.45
2018-10-11T09:58:38.216Z,100643.58
2018-10-11T10:01:12.290Z,100648.06
2018-10-11T10:03:41.318Z,100642.94
2018-10-11T10:06:10.457Z,100635.64
2018-10-11T10:08:39.518Z,100643.57
2018-10-11T10:11:08.620Z,100649.27
2018-10-11T10:13:37.780Z,100645.20
2018-10-11T10:16:07.704Z,100640.87
2018-10-11T10:18:36.809Z,100635.16
2018-10-11T10:21:05.857Z,100635.45
2018-10-11T10:23:34.849Z,100638.45
2018-10-11T10:26:04.910Z,100636.31
2018-10-11T10:28:33.879Z,100640.92
2018-10-11T10:31:02.932Z,100640.09
2018-10-11T10:33:32.320Z,100635.45
2018-10-11T10:36:01.539Z,100636.26
2018-10-11T10:38:30.699Z,100622.61
2018-10-11T10:41:00.449Z,100624.48
2018-10-11T10:43:29.890Z,100613.27
2018-10-11T10:45:59.381Z,100610.23
2018-10-11T10:48:28.401Z,100603.39
2018-10-11T10:50:57.434Z,100609.33
2018-10-11T10:53:26.537Z,100608.48
2018-10-11T10:55:56.272Z,100607.05
2018-10-11T10:58:25.336Z,100593.41
2018-10-11T11:00:54.289Z,100595.04
2018-10-11T11:03:23.272Z,100590.90
2018-10-11T11:05:52.254Z,100592.41
2018-10-11T11:08:22.410Z,100584.97
2018-10-11T11:10:51.394Z,100585.16
2018-10-11T11:13:22.618Z,100585.55
2018-10-11T11:15:52.297Z,100579.14
2018-10-11T11:18:24.746Z,100582.67
2018-10-11T11:20:53.713Z,100582.31
2018-10-11T11:23:22.866Z,100576.83
2018-10-11T11:25:51.785Z,100576.75
2018-10-11T11:28:21.971Z,100578.00
2018-10-11T11:30:51.291Z,100572.77
2018-10-11T11:33:20.349Z,100572.70
2018-10-11T11:35:49.464Z,100577.77
2018-10-11T11:38:20.533Z,100574.27
2018-10-11T11:40:49.653Z,100564.64
2018-10-11T11:43:18.737Z,100568.02
2018-10-11T11:45:47.920Z,100573.88
2018-10-11T11:48:18.142Z,100563.92
2018-10-11T11:50:47.215Z,100566.47
2018-10-11T11:53:16.181Z,100562.84
2018-10-11T11:55:44.976Z,100563.86
2018-10-11T11:58:14.862Z,100561.23
2018-10-11T12:00:43.791Z,100551.41
2018-10-11T12:03:12.580Z,100549.58
2018-10-11T12:05:41.569Z,100546.46
2018-10-11T12:08:11.312Z,100540.72
2018-10-11T12:10:40.070Z,100542.52
2018-10-11T12:13:12.860Z,100546.58
2018-10-11T12:15:43.714Z,100538.33
2018-10-11T12:18:28.133Z,100537.32
2018-10-11T12:20:57.039Z,100541.75
2018-10-11T12:23:25.973Z,100545.97
2018-10-11T12:25:54.815Z,100544.88
2018-10-11T12:28:33.463Z,100544.28
2018-10-11T12:31:02.194Z,100538.36
2018-10-11T12:33:31.111Z,100540.42
2018-10-11T12:35:59.994Z,100543.19
2018-10-11T12:38:30.029Z,100538.84
2018-10-11T12:40:58.816Z,100542.66
2018-10-11T12:43:27.652Z,100544.18
2018-10-11T12:45:56.434Z,100550.56
2018-10-11T12:48:33.565Z,100548.67
2018-10-11T12:51:02.671Z,100551.06
2018-10-11T12:53:31.483Z,100544.67
2018-10-11T12:56:00.360Z,100549.66
2018-10-11T12:58:30.207Z,100548.11
2018-10-11T13:00:59.090Z,100544.09
2018-10-11T13:03:28.656Z,100545.89
2018-10-11T13:05:59.348Z,100544.66
2018-10-11T13:08:32.968Z,100545.27
2018-10-11T13:11:04.883Z,100541.84
2018-10-11T13:13:37.228Z,100547.52
2018-10-11T13:16:07.012Z,100546.62
2018-10-11T13:18:36.852Z,100550.77
2018-10-11T13:21:05.706Z,100558.31
2018-10-11T13:23:35.364Z,100553.70
2018-10-11T13:26:04.422Z,100550.07
2018-10-11T13:28:34.229Z,100538.03
2018-10-11T13:31:05.580Z,100539.89
2018-10-11T13:33:37.957Z,100536.19
2018-10-11T13:36:10.791Z,100539.40
2018-10-11T13:38:40.704Z,100539.84
2018-10-11T13:41:11.135Z,100534.95
2018-10-11T13:43:39.858Z,100537.20
2018-10-11T13:46:08.815Z,100538.86
2018-10-11T13:48:37.539Z,100543.80
2018-10-11T13:51:07.093Z,100537.27
2018-10-11T13:53:36.139Z,100536.32
2018-10-11T13:56:05.433Z,100539.22
2018-10-11T13:58:35.986Z,100533.08
2018-10-11T14:01:04.924Z,100527.30
2018-10-11T14:03:33.789Z,100529.20
2018-10-11T14:06:03.012Z,100532.70
2018-10-11T14:08:32.984Z,100525.97
2018-10-11T14:11:02.781Z,100525.59
2018-10-11T14:13:31.602Z,100522.26
2018-10-11T14:16:00.415Z,100522.40
2018-10-11T14:18:31.392Z,100517.75
2018-10-11T14:21:00.515Z,100513.86
2018-10-11T14:23:29.248Z,100504.09
2018-10-11T14:25:58.003Z,100508.16
2018-10-11T14:28:41.492Z,100511.19
2018-10-11T14:31:10.245Z,100514.44
2018-10-11T14:33:39.337Z,100512.41
2018-10-11T14:36:08.251Z,100503.44
2018-10-11T14:38:37.227Z,100509.59
2018-10-11T14:41:06.039Z,100505.81
2018-10-11T14:43:34.921Z,100507.02
2018-10-11T14:46:03.600Z,100501.71
2018-10-11T14:48:45.776Z,100496.70
2018-10-11T14:51:14.626Z,100500.16
2018-10-11T14:53:43.470Z,100503.62
2018-10-11T14:56:12.355Z,100507.36
2018-10-11T14:58:44.694Z,100516.10
2018-10-11T15:01:13.759Z,100508.53
2018-10-11T15:03:42.976Z,100506.42
2018-10-11T15:06:11.727Z,100506.62
2018-10-11T15:08:53.749Z,100504.95
2018-10-11T15:11:22.528Z,100507.02
2018-10-11T15:13:51.211Z,100501.30
2018-10-11T15:16:19.998Z,100505.43
2018-10-11T15:18:54.372Z,100503.44
2018-10-11T15:21:23.073Z,100504.54
2018-10-11T15:23:51.869Z,100512.52
2018-10-11T15:26:21.153Z,100517.32
2018-10-11T15:28:50.875Z,100520.70
2018-10-11T15:31:20.007Z,100518.69
2018-10-11T15:33:48.657Z,100516.02
2018-10-11T15:36:17.379Z,100511.89
2018-10-11T15:38:46.116Z,100515.36
2018-10-11T15:41:14.964Z,100515.88
2018-10-11T15:43:43.718Z,100517.00
2018-10-11T15:46:12.356Z,100528.13
2018-10-11T15:48:41.139Z,100518.95
2018-10-11T15:51:09.885Z,100520.41
2018-10-11T15:53:38.673Z,100519.05
2018-10-11T15:56:09.903Z,100523.38
2018-10-11T15:58:38.770Z,100523.12
2018-10-11T16:01:07.552Z,100527.92
2018-10-11T16:03:36.444Z,100523.03
2018-10-11T16:06:05.861Z,100514.70
2018-10-11T16:08:34.738Z,100517.16
2018-10-11T16:11:10.827Z,100518.45
2018-10-11T16:13:39.725Z,100516.67
2018-10-11T16:16:08.815Z,100517.03
2018-10-11T16:18:37.705Z,100523.92
2018-10-11T16:21:13.950Z,100524.23
2018-10-11T16:23:42.681Z,100531.36
2018-10-11T16:26:11.542Z,100526.19
2018-10-11T16:28:40.442Z,100526.73
2018-10-11T16:31:16.780Z,100522.92
2018-10-11T16:33:45.714Z,100531.08
2018-10-11T16:36:15.410Z,100532.97
2018-10-11T16:38:44.206Z,100528.11
2018-10-11T16:41:23.936Z,100528.64
2018-10-11T16:43:53.069Z,100532.70
2018-10-11T16:46:21.836Z,100534.05
2018-10-11T16:48:50.577Z,100537.83
2018-10-11T16:51:19.467Z,100545.69
2018-10-11T16:53:48.260Z,100549.15
2018-10-11T16:56:17.154Z,100554.31
2018-10-11T16:58:46.747Z,100551.30
2018-10-11T17:01:15.552Z,100555.11
2018-10-11T17:03:44.358Z,100556.16
2018-10-11T17:06:13.278Z,100553.97
2018-10-11T17:08:42.131Z,100558.58
2018-10-11T17:11:10.867Z,100554.27
2018-10-11T17:13:39.730Z,100558.88
2018-10-11T17:16:08.564Z,100554.53
2018-10-11T17:18:37.463Z,100552.94
2018-10-11T17:21:06.362Z,100556.47
2018-10-11T17:23:35.100Z,100563.51
2018-10-11T17:26:03.924Z,100561.92
2018-10-11T17:28:32.800Z,100564.36
2018-10-11T17:31:01.527Z,100562.17
2018-10-11T17:33:30.417Z,100556.73
2018-10-11T17:35:59.163Z,100560.00
2018-10-11T17:38:28.062Z,100563.83
2018-10-11T17:40:56.835Z,100571.15
2018-10-11T17:43:25.636Z,100570.33
2018-10-11T17:45:54.463Z,100574.41
2018-10-11T17:48:23.308Z,100578.21
2018-10-11T17:50:55.239Z,100574.38
2018-10-11T17:53:24.062Z,100570.29
2018-10-11T17:55:53.229Z,100564.84
2018-10-11T17:58:22.072Z,100570.00
2018-10-11T18:00:50.802Z,100571.88
2018-10-11T18:03:19.575Z,100565.91
2018-10-11T18:05:49.031Z,100573.45
2018-10-11T18:08:17.802Z,100560.14
2018-10-11T18:10:48.799Z,100567.42
2018-10-11T18:13:17.846Z,100561.14
2018-10-11T18:15:46.563Z,100563.02
2018-10-11T18:18:15.591Z,100574.43
2018-10-11T18:20:45.071Z,100575.50
2018-10-11T18:23:13.892Z,100579.28
2018-10-11T18:25:42.947Z,100582.78
2018-10-11T18:28:12.105Z,100584.11
2018-10-11T18:30:41.350Z,100583.83
2018-10-11T18:33:10.374Z,100588.14
2018-10-11T18:35:39.777Z,100588.66
2018-10-11T18:38:08.850Z,100591.07
2018-10-11T18:40:37.812Z,100593.75
2018-10-11T18:43:06.903Z,100598.62
2018-10-11T18:45:35.894Z,100599.91
2018-10-11T18:48:04.822Z,100601.99
2018-10-11T18:50:33.836Z,100602.81
2018-10-11T18:53:02.624Z,100611.22
2018-10-11T18:55:31.757Z,100609.35
2018-10-11T18:58:00.675Z,100610.97
2018-10-11T19:00:30.020Z,100611.22
2018-10-11T19:02:59.131Z,100611.98
2018-10-11T19:05:28.564Z,100618.95
2018-10-11T19:07:57.869Z,100618.08
2018-10-11T19:10:27.017Z,100618.59
2018-10-11T19:12:56.164Z,100622.30
2018-10-11T19:15:25.305Z,100627.06
2018-10-11T19:17:54.354Z,100630.41
2018-10-11T19:20:23.671Z,100630.73
2018-10-11T19:22:52.958Z,100628.34
2018-10-11T19:25:22.080Z,100639.20
2018-10-11T19:27:51.857Z,100640.62
2018-10-11T19:30:20.824Z,100643.25
2018-10-11T19:32:49.750Z,100636.38
2018-10-11T19:35:18.617Z,100627.83
2018-10-11T19:37:47.439Z,100631.96
2018-10-11T19:40:16.364Z,100634.50
2018-10-11T19:42:45.118Z,100637.61
2018-10-11T19:45:14.355Z,100639.22
2018-10-11T19:47:43.274Z,100644.24
2018-10-11T19:50:12.419Z,100644.17
2018-10-11T19:52:41.552Z,100652.61
2018-10-11T19:55:10.472Z,100652.20
2018-10-11T19:57:39.530Z,100655.55
2018-10-11T20:00:08.576Z,100648.44
2018-10-11T20:02:37.445Z,100653.16
2018-10-11T20:05:06.345Z,100650.05
2018-10-11T20:07:36.228Z,100651.18
2018-10-11T20:10:05.123Z,100658.23
2018-10-11T20:12:34.029Z,100652.57
2018-10-11T20:15:03.443Z,100657.37
2018-10-11T20:17:32.950Z,100659.44
2018-10-11T20:20:01.920Z,100654.63
2018-10-11T20:22:30.891Z,100654.13
2018-10-11T20:24:59.710Z,100662.42
2018-10-11T20:27:28.534Z,100658.16
2018-10-11T20:29:57.352Z,100660.99
2018-10-11T20:32:27.145Z,100663.52
2018-10-11T20:34:55.952Z,100670.48
2018-10-11T20:37:24.799Z,100667.22
2018-10-11T20:39:53.730Z,100673.30
2018-10-11T20:42:22.554Z,100673.12
2018-10-11T20:44:51.307Z,100677.80
2018-10-11T20:47:20.159Z,100675.42
2018-10-11T20:49:48.916Z,100674.66
2018-10-11T20:52:17.825Z,100671.45
2018-10-11T20:54:46.636Z,100671.08
2018-10-11T20:57:15.467Z,100676.41
2018-10-11T20:59:44.208Z,100676.99
2018-10-11T21:02:12.998Z,100674.19
2018-10-11T21:04:41.784Z,100680.36
2018-10-11T21:07:10.739Z,100673.98
2018-10-11T21:09:39.480Z,100676.04
2018-10-11T21:12:08.378Z,100671.36
2018-10-11T21:14:37.181Z,100680.73
2018-10-11T21:17:06.044Z,100684.84
2018-10-11T21:19:35.950Z,100681.63
2018-10-11T21:22:04.772Z,100683.73
2018-10-11T21:24:33.680Z,100686.13
2018-10-11T21:27:02.550Z,100686.27
2018-10-11T21:29:31.373Z,100681.17
2018-10-11T21:32:00.243Z,100680.48
2018-10-11T21:34:29.056Z,100679.95
2018-10-11T21:36:57.835Z,100678.05
2018-10-11T21:39:26.651Z,100679.13
2018-10-11T21:41:56.985Z,100678.55
2018-10-11T21:44:25.819Z,100680.58
2018-10-11T21:46:54.597Z,100681.87
2018-10-11T21:49:23.331Z,100680.25
2018-10-11T21:51:53.182Z,100676.97
2018-10-11T21:54:22.169Z,100677.71
2018-10-11T21:56:51.020Z,100675.66
2018-10-11T21:59:19.818Z,100680.16
2018-10-11T22:01:48.533Z,100681.39
2018-10-11T22:04:17.314Z,100681.27
2018-10-11T22:06:46.128Z,100679.86
2018-10-11T22:09:15.345Z,100679.65
2018-10-11T22:11:44.169Z,100680.23
2018-10-11T22:14:12.960Z,100678.05
2018-10-11T22:16:42.223Z,100670.55
2018-10-11T22:19:11.100Z,100680.81
2018-10-11T22:21:39.855Z,100672.45
2018-10-11T22:24:09.180Z,100677.35
2018-10-11T22:26:38.008Z,100685.43
2018-10-11T22:29:06.882Z,100679.47
2018-10-11T22:31:35.717Z,100676.70
2018-10-11T22:34:04.407Z,100678.76
2018-10-11T22:36:33.091Z,100676.83
2018-10-11T22:39:01.870Z,100677.87
2018-10-11T22:41:30.851Z,100679.09
2018-10-11T22:43:59.690Z,100682.24
2018-10-11T22:46:28.540Z,100686.16
2018-10-11T22:48:57.303Z,100687.09
2018-10-11T22:51:25.978Z,100683.70
2018-10-11T22:53:54.755Z,100684.42
2018-10-11T22:56:23.519Z,100687.30
2018-10-11T22:58:53.261Z,100689.68
2018-10-11T23:01:21.938Z,100686.12
2018-10-11T23:03:51.093Z,100688.75
2018-10-11T23:06:19.892Z,100700.03
2018-10-11T23:08:48.544Z,100696.91
2018-10-11T23:11:17.277Z,100709.46
2018-10-11T23:13:46.356Z,100712.02
2018-10-11T23:16:15.198Z,100713.81
2018-10-11T23:18:44.028Z,100705.02
2018-10-11T23:21:13.270Z,100710.09
2018-10-11T23:23:43.391Z,100707.70
2018-10-11T23:26:12.163Z,100705.74
2018-10-11T23:28:41.417Z,100712.40
2018-10-11T23:31:10.592Z,100715.30
2018-10-11T23:33:39.484Z,100723.68
2018-10-11T23:36:08.236Z,100730.09
2018-10-11T23:38:37.195Z,100737.58
2018-10-11T23:41:06.352Z,100738.27
2018-10-11T23:43:35.195Z,100739.82
2018-10-11T23:46:04.012Z,100742.58
2018-10-11T23:48:32.864Z,100739.61
2018-10-11T23:51:01.646Z,100751.79
2018-10-11T23:53:30.312Z,100746.03
2018-10-11T23:55:59.104Z,100747.75
2018-10-11T23:58:27.772Z,100755.08
